Dauntless Aviation
Airports North America United States Colorado
98CO

NCMC HELIPORT

GREELEY, CO, USA

Airport Info
Suggest Updated Information for this Airport

Location

Latitude / Longitude: 40°24'53"N / 104°42'28"W
  40°24.9'N / 104°42.4667'W
  40.4150 / -104.7078
Elevation: 4882 ft. (estimated)
Variation: 12E (1985)
From city: 00 miles N of GREELEY, CO

Operations

Facility use: Private
Sectional chart: DENVER
Control tower: no
Boundary ARTCC: DENVER
FSS: DENVER [1-800-WX-BRIEF]
Segmented circle: no

Communications

Nearby radio navigation aids

VOR radial/distance VOR name Freq Var
GLL 233oT/8.9 GILL VORTAC 114.20 13E
DVV 353oT/31.5 MILE HIGH VORTAC 114.70 11E
BJC 33oT/36.1 JEFFCO VOR/DME 115.40 11E
DEN 357oT/36.2 DENVER VOR/DME 117.90 11E
 
NDB name Hdg/Dist Freq Var ID

Services

Runway Information

Helipad H1

Dimensions: 40 x 40 ft.
Surface: PORTLAND CEMENT CONCRETE,NO SPECIAL SURFACE TREATMENT
 

Additional Remarks

Instrument Procedures

No published instrument procedures available
Topographic chart at:
Satellite photo at:
Airport distance calculator
From:
Weather Reports

METAR

KGXY
4.2nm NE
KGXY 220356Z AUTO 20003KT 10SM CLR 11/M11 A2989 RMK AO2 SLP105 T01061111
KFNL
14.3nm W
KFNL 220356Z AUTO 24014G19KT 10SM CLR 14/M09 A2989 RMK AO2 SLP080 T01441094
KLMO
25.8nm SW
KLMO 220353Z AUTO 24003KT 10SM CLR 09/M11 A2993 RMK AO2 T00911106
KEIK
28.6nm S
KEIK 220354Z AUTO 20008KT 10SM CLR 12/M14 A2991 RMK AO2 T01231142
KBDU
33.3nm SW
KBDU 220356Z AUTO 00000KT 10SM CLR 13/M11 A2991 RMK AO2
KDEN
34.0nm SE
KDEN 220353Z 21015KT 10SM FEW150 SCT220 13/M12 A2992 RMK AO2 SLP076 T01331117

TAF

KDEN
34.0nm SE
KDEN 220301Z 2203/2306 22014KT P6SM SCT220 FM220600 24015G22KT P6SM SCT220 FM221200 24012KT P6SM SCT220 FM221700 28012KT P6SM SCT220 FM222000 33012KT P6SM FEW120 SCT220 FM230200 03012KT P6SM SCT100 BKN150
KBJC
35.8nm S
KBJC 220301Z 2203/2224 20014KT P6SM SCT140 FM220800 25025G35KT P6SM FEW140 SCT220 FM221500 28020G30KT P6SM FEW140 SCT220 FM221900 25015G25KT P6SM FEW140 SCT220
Safelog

 

Dauntless Aviation

© 2007-2017 Dauntless Aviation, all rights reserved
Information provided via PilotNav comes from a variety of official and unofficial data sources. As errors are possible, do not use PilotNav for primary flight planning purposes. Verify any information that you receive via PilotNav with current and canonical charts and other official documents. The material in this database is subject to database copyrights held by Dauntless Aviation and may not be copied without the express permission of Dauntless Aviation - licenses for use of part of all of this data are available for purchase; enquire via the Dauntless Aviation helpdesk. A number of mechanisms and markers exist in the database to protect against and identify infringement / copyright. Automated queries against this website are stictly prohibited, and all activity is logged and analyzed.